Accueil
METAR-TAF:

METAR-TAF

Aéroports :

Yap, Micronésie

Aéroport international de Yap

latitude: 09-29N, longitude: 138-05E, altitude: 28 m

Observation

Le bulletin a été fait il y a 12 minutes, à 23:50 UTC
Vent 11 kt de est/nord-est
Température 30°C
Humidité 70%
Pression 1011 hPa
Visibilité: 19.3 km
Quelques nuages à une hauteur de 1600 ft
Nuages fragmentés à une hauteur de 30000 ft

METAR: PTYA 202350Z 06011KT 12SM FEW016 BKN300 30/24 A2984 RMK SLP105 8/101 T02980242 10298 20260 51010

Heure: 10:02 (00:02 UTC)

Prévision

Le bulletin a été fait il y a 20 minutes, à 23:42 UTC
Prévision valable du 21 à 00 UTC au 21 à 24 UTC
Vent 10 kt de est/nord-est
Visibilité: 10 km
Quelques nuages à une hauteur de 1600 ft
Nuages épars à une hauteur de 4000 ft

TAF: PTYA 202342Z 2100/2124 06010KT P6SM FEW016 SCT040

Observations et prévisions météorologiques de plus de 4000 aéroports (messages METAR et TAF).

Les stations disponibles sont représentées par des disques jaunes et rouges sur la carte.

Passer la souris dessus pour voir le nom de la station.

Cliquer dessus pour voir les observations et prévisions météorologiques.

Pour changer de carte: cliquez sur les boutons verts avec une croix noire pour zoomer, sur le bouton vert avec un tiret pour effectuer un zoom arrière, ou sur les flèches vertes pour les cartes adjacentes.


METAR-TAF: